Terminal Aerodrome Forecast
Issued by NWS

Home | Current Version | Previous Version | Text Only | Print | Product List | Glossary On
Versions: 1 2 3 4 5 6 7 8 9 10 11 12 13 14 15 16 17 18 19 20 21 22 23 24 25 26 27 28 29
000
FTUS44 KLIX 200700 AAA
TAFHDC
TAF AMD
KHDC 200707Z 2007/2106 03005KT P6SM OVC005
     FM201300 02006KT P6SM BKN015
     FM201800 02007KT P6SM BKN020
     FM202000 02007KT P6SM BKN030
      AMD NOT SKED=

USA.gov is the U.S. government's official web portal to all federal, state and local government web resources and services.